Rutland, Massachusetts
Current Conditions -  °F | °C
As of 3:54 AM on Wednesday 28 Jan 2015 (Local Time) from KORH Reporting Station
Scattered Clouds Scattered Clouds  
Wind Chill: -12°   Ceiling: Unl
Heat Index:   Visibility: 10mi
Dew Point:   Wind: 21mph
Humidity: 70%   Direction: 310°NW
Pressure: 29.69"   Gusts: 29mph
Location:  42.36°N, 71.95°W
Report Text: KORH 280854Z AUTO 31018G25KT 10SM SCT044 M13/M18 A2969 RMK AO2 PK WND 30027/0830 SLP076 60000 T11331178 53022 $
Loading
Personal Weather Stations






























Interactive Weather Map New forecast layout! Learn more

10-Day Weather Forecast

Advertisements
Track Severe Weather on mobile